Time;durP1;ratioP1;P1;durP2;ratioP2;P2;SDS_P1;SDS_P2;PMS_P1;PMS_P2;Temp;Humidity;BMP_temperature;BMP_pressure;BME280_temperature;BME280_humidity;BME280_pressure;Samples;Min_cycle;Max_cycle;Signal;HPM_P1;HPM_P2
2023/07/25 00:00:41;;;;;;;4.47;3.70;;;16.40;99.90;;;;;;5038140;28;20237;-75
2023/07/25 00:03:08;;;;;;;8.60;7.70;;;16.40;99.90;;;;;;5029634;28;20629;-75
2023/07/25 00:05:35;;;;;;;7.80;7.20;;;16.50;99.90;;;;;;5030970;28;20207;-75
2023/07/25 00:08:02;;;;;;;6.43;5.93;;;16.50;99.90;;;;;;5030288;28;20204;-75
2023/07/25 00:10:29;;;;;;;4.87;3.70;;;16.60;99.90;;;;;;5029261;28;20223;-75
2023/07/25 00:12:56;;;;;;;4.00;3.33;;;16.60;99.90;;;;;;5029316;28;20234;-75
2023/07/25 00:15:24;;;;;;;4.03;3.60;;;16.70;99.90;;;;;;5032102;28;20219;-75
2023/07/25 00:17:51;;;;;;;4.50;3.53;;;16.70;99.90;;;;;;5033824;28;20210;-75
2023/07/25 00:20:18;;;;;;;4.80;3.50;;;16.70;99.90;;;;;;5040042;28;20199;-75
2023/07/25 00:22:45;;;;;;;3.47;3.17;;;16.80;99.90;;;;;;5034503;28;20310;-75
2023/07/25 00:25:11;;;;;;;3.97;3.50;;;16.80;99.90;;;;;;5034021;28;20308;-75
2023/07/25 00:27:38;;;;;;;3.70;3.30;;;16.80;99.90;;;;;;5033704;28;20227;-75
2023/07/25 00:30:06;;;;;;;5.40;4.97;;;16.90;99.90;;;;;;5032246;28;20203;-75
2023/07/25 00:32:35;;;;;;;4.60;4.20;;;16.90;99.90;;;;;;5038070;28;20195;-75
2023/07/25 00:35:02;;;;;;;4.43;4.03;;;16.90;99.90;;;;;;5033743;28;20278;-75
2023/07/25 00:37:30;;;;;;;3.40;3.10;;;16.90;99.90;;;;;;5033991;28;20198;-75
2023/07/25 00:39:57;;;;;;;3.90;3.10;;;16.90;99.90;;;;;;5032208;28;20295;-75
2023/07/25 00:42:24;;;;;;;4.17;3.47;;;16.90;99.90;;;;;;5032425;28;20249;-75
2023/07/25 00:44:51;;;;;;;3.60;3.20;;;17.00;99.90;;;;;;5033754;28;20258;-75
2023/07/25 00:47:18;;;;;;;3.43;3.10;;;16.90;99.90;;;;;;5035266;28;20210;-75
2023/07/25 00:49:47;;;;;;;4.43;3.60;;;17.00;99.90;;;;;;5031946;28;20701;-75
2023/07/25 00:52:14;;;;;;;3.47;3.10;;;16.90;99.90;;;;;;5038456;28;20302;-76
2023/07/25 00:54:47;;;;;;;3.73;3.33;;;16.90;99.90;;;;;;5033714;28;20227;-75
2023/07/25 00:57:16;;;;;;;4.53;3.60;;;16.80;99.90;;;;;;5031908;28;20208;-75
2023/07/25 00:59:42;;;;;;;3.20;2.90;;;16.80;99.90;;;;;;5036247;28;20196;-75
2023/07/25 01:02:10;;;;;;;4.43;3.20;;;16.70;99.90;;;;;;5047371;28;20192;-75
2023/07/25 01:04:37;;;;;;;3.90;3.50;;;16.80;99.90;;;;;;5039587;28;20219;-75
2023/07/25 01:07:06;;;;;;;3.43;3.13;;;16.80;99.90;;;;;;5033619;28;20299;-75
2023/07/25 01:09:38;;;;;;;4.33;3.37;;;16.80;99.90;;;;;;5031437;28;20566;-75
2023/07/25 01:12:06;;;;;;;4.83;3.70;;;16.70;99.90;;;;;;5031743;28;20250;-75
2023/07/25 01:14:34;;;;;;;4.40;3.60;;;16.70;99.90;;;;;;5032795;28;20220;-75
2023/07/25 01:17:03;;;;;;;5.10;4.70;;;16.70;99.90;;;;;;5033059;28;20219;-75
2023/07/25 01:19:32;;;;;;;6.27;5.70;;;16.60;99.90;;;;;;5036182;28;20200;-75
2023/07/25 01:21:59;;;;;;;5.03;3.83;;;16.50;99.90;;;;;;5048455;28;20199;-75
2023/07/25 01:24:27;;;;;;;4.40;3.83;;;16.40;99.90;;;;;;5031566;28;20271;-75
2023/07/25 01:26:56;;;;;;;3.80;3.40;;;16.30;99.90;;;;;;5044188;28;20207;-75
2023/07/25 01:29:23;;;;;;;5.07;3.83;;;16.20;99.90;;;;;;5031422;28;20200;-75
2023/07/25 01:31:50;;;;;;;6.70;6.20;;;16.20;99.90;;;;;;5036288;28;20228;-74
2023/07/25 01:34:16;;;;;;;5.93;3.77;;;16.10;99.90;;;;;;5042180;28;20652;-74
2023/07/25 01:36:43;;;;;;;4.57;3.67;;;16.10;99.90;;;;;;5044374;28;20252;-74
2023/07/25 01:39:10;;;;;;;4.07;3.50;;;16.10;99.90;;;;;;5032394;28;20203;-74
2023/07/25 01:41:38;;;;;;;3.83;3.43;;;16.10;99.90;;;;;;5036050;28;20188;-74
2023/07/25 01:44:05;;;;;;;3.77;3.37;;;16.00;99.90;;;;;;5032380;28;20215;-75
2023/07/25 01:46:32;;;;;;;5.27;4.00;;;16.00;99.90;;;;;;5031207;28;20260;-75
2023/07/25 01:49:00;;;;;;;3.77;3.43;;;16.00;99.90;;;;;;5031228;28;20199;-74
2023/07/25 01:51:27;;;;;;;6.10;4.13;;;16.00;99.90;;;;;;5043768;28;20232;-74
2023/07/25 01:53:54;;;;;;;8.20;4.80;;;15.90;99.90;;;;;;5032380;28;20235;-74
2023/07/25 01:56:21;;;;;;;7.20;6.60;;;15.90;99.90;;;;;;5047333;28;20230;-74
2023/07/25 01:58:50;;;;;;;5.70;4.00;;;15.90;99.90;;;;;;5037638;28;20206;-73
2023/07/25 02:01:17;;;;;;;4.70;3.67;;;15.80;99.90;;;;;;5033467;28;20196;-74
2023/07/25 02:03:43;;;;;;;4.80;3.80;;;15.80;99.90;;;;;;5045346;28;20224;-74
2023/07/25 02:06:10;;;;;;;4.93;4.00;;;15.70;99.90;;;;;;5048134;28;20200;-74
2023/07/25 02:08:37;;;;;;;7.63;6.93;;;15.70;99.90;;;;;;5044912;28;20199;-74
2023/07/25 02:11:04;;;;;;;7.13;6.53;;;15.60;99.90;;;;;;5030706;28;20634;-74
2023/07/25 02:13:31;;;;;;;7.83;4.40;;;15.60;99.90;;;;;;5030440;28;20232;-74
2023/07/25 02:15:59;;;;;;;5.00;3.97;;;15.60;99.90;;;;;;5043602;28;20194;-74
2023/07/25 02:18:26;;;;;;;4.50;4.07;;;15.60;99.90;;;;;;5038812;28;20211;-74
2023/07/25 02:20:52;;;;;;;4.17;3.77;;;15.60;99.90;;;;;;5033263;28;20207;-74
2023/07/25 02:23:19;;;;;;;6.13;5.53;;;15.60;99.90;;;;;;5030409;28;20212;-74
2023/07/25 02:25:47;;;;;;;7.33;4.97;;;15.50;99.90;;;;;;5030687;28;20210;-74
2023/07/25 02:28:14;;;;;;;7.57;6.93;;;15.60;99.90;;;;;;5031236;28;20209;-74
2023/07/25 02:30:41;;;;;;;7.03;6.50;;;15.50;99.90;;;;;;5036482;28;20669;-74
2023/07/25 02:33:09;;;;;;;8.43;7.60;;;15.60;99.90;;;;;;5043931;28;20713;-74
2023/07/25 02:35:36;;;;;;;7.87;7.10;;;15.50;99.90;;;;;;5031930;28;20276;-74
2023/07/25 02:38:03;;;;;;;5.23;4.57;;;15.50;99.90;;;;;;5030756;28;20201;-74
2023/07/25 02:40:30;;;;;;;5.80;4.67;;;15.50;99.90;;;;;;5030174;28;20216;-74
2023/07/25 02:42:57;;;;;;;5.67;4.57;;;15.50;99.90;;;;;;5033250;28;20201;-74
2023/07/25 02:45:23;;;;;;;4.70;4.20;;;15.40;99.90;;;;;;5030306;28;20276;-74
2023/07/25 02:47:50;;;;;;;6.83;5.00;;;15.40;99.90;;;;;;5031412;28;20233;-74
2023/07/25 02:50:19;;;;;;;8.20;5.17;;;15.40;99.90;;;;;;5045436;28;20207;-73
2023/07/25 02:52:45;;;;;;;5.67;4.00;;;15.40;99.90;;;;;;5036653;28;20224;-76
2023/07/25 02:55:12;;;;;;;5.50;4.20;;;15.40;99.90;;;;;;5048290;28;20727;-76
2023/07/25 02:57:39;;;;;;;5.07;4.37;;;15.30;99.90;;;;;;5038402;28;20675;-76
2023/07/25 03:00:08;;;;;;;5.47;4.93;;;15.30;99.90;;;;;;5039732;28;20212;-76
2023/07/25 03:02:34;;;;;;;5.87;5.27;;;15.30;99.90;;;;;;5038618;28;20213;-77
2023/07/25 03:05:01;;;;;;;5.40;4.90;;;15.20;99.90;;;;;;5043887;28;20587;-76
2023/07/25 03:07:29;;;;;;;6.07;5.50;;;15.20;99.90;;;;;;5034540;28;20744;-76
2023/07/25 03:09:56;;;;;;;5.37;4.23;;;15.20;99.90;;;;;;5047011;28;20574;-76
2023/07/25 03:12:24;;;;;;;8.10;7.40;;;15.10;99.90;;;;;;5045732;28;20221;-76
2023/07/25 03:14:51;;;;;;;6.53;4.50;;;15.10;99.90;;;;;;5038210;28;20238;-76
2023/07/25 03:17:18;;;;;;;4.60;4.17;;;15.00;99.90;;;;;;5040730;28;20231;-76
2023/07/25 03:19:45;;;;;;;7.60;7.00;;;15.00;99.90;;;;;;5046580;28;20193;-76
2023/07/25 03:22:11;;;;;;;8.13;6.63;;;15.00;99.90;;;;;;5045423;28;20197;-76
2023/07/25 03:24:40;;;;;;;6.57;6.07;;;15.00;99.90;;;;;;5038427;28;22242;-76
2023/07/25 03:27:07;;;;;;;6.77;6.17;;;15.00;99.90;;;;;;5029380;28;20199;-76
2023/07/25 03:29:33;;;;;;;8.37;7.77;;;15.00;99.90;;;;;;5034049;28;20203;-76
2023/07/25 03:32:00;;;;;;;8.20;7.50;;;15.00;99.90;;;;;;5029944;28;20218;-77
2023/07/25 03:34:27;;;;;;;8.50;7.90;;;15.00;99.90;;;;;;5036449;28;20231;-73
2023/07/25 03:36:54;;;;;;;8.40;7.70;;;15.00;99.90;;;;;;5033653;28;20630;-73
2023/07/25 03:39:21;;;;;;;8.57;7.87;;;15.00;99.90;;;;;;5033970;28;20207;-73
2023/07/25 03:41:49;;;;;;;8.87;8.17;;;15.00;99.90;;;;;;5032367;28;20192;-73
2023/07/25 03:44:17;;;;;;;8.97;8.27;;;15.00;99.90;;;;;;5039015;28;20279;-73
2023/07/25 03:46:44;;;;;;;8.60;7.90;;;15.00;99.90;;;;;;5029758;28;20221;-73
2023/07/25 03:49:11;;;;;;;8.47;7.87;;;15.00;99.90;;;;;;5031873;28;20737;-73
2023/07/25 03:51:38;;;;;;;9.27;8.53;;;15.00;99.90;;;;;;5032735;28;20278;-73
2023/07/25 03:54:05;;;;;;;8.50;7.90;;;15.00;99.90;;;;;;5039313;28;20425;-73
2023/07/25 03:56:32;;;;;;;7.63;7.13;;;15.00;99.90;;;;;;5037911;28;20197;-73
2023/07/25 03:59:01;;;;;;;7.73;7.03;;;15.10;99.90;;;;;;5032989;28;20210;-73
2023/07/25 04:01:28;;;;;;;7.63;6.93;;;15.10;99.90;;;;;;5034540;28;20196;-74
2023/07/25 04:03:55;;;;;;;4.37;3.97;;;15.10;99.90;;;;;;5033187;28;20229;-73
2023/07/25 04:06:22;;;;;;;4.37;3.97;;;15.10;99.90;;;;;;5047623;28;20283;-74
2023/07/25 04:08:49;;;;;;;4.73;3.90;;;15.10;99.90;;;;;;5032741;28;20198;-74
2023/07/25 04:11:15;;;;;;;4.70;4.20;;;15.10;99.90;;;;;;5034184;28;20255;-74
2023/07/25 04:13:42;;;;;;;5.17;4.50;;;15.00;99.90;;;;;;5032755;28;20234;-74
2023/07/25 04:16:10;;;;;;;8.27;7.53;;;15.00;99.90;;;;;;5032699;28;21020;-74
2023/07/25 04:18:37;;;;;;;9.37;8.67;;;15.00;99.90;;;;;;5041567;28;20195;-74
2023/07/25 04:21:04;;;;;;;9.80;9.00;;;15.10;99.90;;;;;;5046029;28;20247;-74
2023/07/25 04:23:31;;;;;;;9.40;8.70;;;15.10;99.90;;;;;;5041612;28;20221;-74
2023/07/25 04:25:58;;;;;;;8.47;7.87;;;15.10;99.90;;;;;;5033031;28;20203;-73
2023/07/25 04:28:25;;;;;;;9.87;9.07;;;15.20;99.90;;;;;;5047290;28;20220;-74
2023/07/25 04:30:51;;;;;;;10.20;9.40;;;15.20;99.90;;;;;;5034110;28;20733;-73
2023/07/25 04:33:19;;;;;;;9.30;8.60;;;15.20;99.90;;;;;;5032382;28;20630;-73
2023/07/25 04:35:46;;;;;;;9.70;9.00;;;15.30;99.90;;;;;;5032659;28;20208;-74
2023/07/25 04:38:14;;;;;;;9.73;8.87;;;15.40;99.90;;;;;;5032384;28;20194;-73
2023/07/25 04:40:41;;;;;;;10.27;9.57;;;15.40;99.90;;;;;;5033858;28;20195;-74
2023/07/25 04:43:08;;;;;;;8.30;7.60;;;15.50;99.90;;;;;;5037651;28;20677;-74
2023/07/25 04:45:35;;;;;;;9.30;8.60;;;15.60;99.90;;;;;;5032780;28;20210;-74
2023/07/25 04:48:02;;;;;;;8.63;8.00;;;15.60;99.90;;;;;;5033638;28;20264;-74
2023/07/25 04:50:30;;;;;;;10.40;9.60;;;15.70;99.90;;;;;;5032070;28;20198;-74
2023/07/25 04:52:56;;;;;;;10.27;9.43;;;15.80;99.90;;;;;;5033385;28;20569;-74
2023/07/25 04:55:23;;;;;;;9.60;8.90;;;15.80;99.90;;;;;;5033374;28;20293;-74
2023/07/25 04:57:51;;;;;;;7.67;6.97;;;15.80;99.90;;;;;;5040850;28;20199;-74
2023/07/25 05:00:18;;;;;;;8.27;7.57;;;15.90;99.90;;;;;;5048686;28;20219;-74
2023/07/25 05:02:45;;;;;;;5.43;4.50;;;16.00;99.90;;;;;;5039895;28;20195;-74
2023/07/25 05:05:12;;;;;;;8.00;7.40;;;16.10;99.90;;;;;;5032002;28;20633;-74
2023/07/25 05:07:40;;;;;;;4.93;4.43;;;16.10;99.90;;;;;;5033040;28;20241;-74
2023/07/25 05:10:07;;;;;;;10.00;9.30;;;16.10;99.90;;;;;;5030855;28;20253;-74
2023/07/25 05:12:34;;;;;;;4.77;4.30;;;16.20;99.90;;;;;;5035966;28;20218;-73
2023/07/25 05:15:01;;;;;;;7.63;7.03;;;16.20;99.90;;;;;;5047268;28;20233;-73
2023/07/25 05:17:28;;;;;;;6.27;4.93;;;16.20;99.90;;;;;;5039297;28;20199;-73
2023/07/25 05:19:55;;;;;;;5.53;4.80;;;16.20;99.90;;;;;;5032453;28;20211;-73
2023/07/25 05:22:22;;;;;;;5.73;4.90;;;16.20;99.90;;;;;;5032999;28;20685;-73
2023/07/25 05:24:50;;;;;;;6.73;6.13;;;16.10;99.90;;;;;;5033038;28;20215;-73
2023/07/25 05:27:16;;;;;;;10.30;9.50;;;16.10;99.90;;;;;;5032692;28;20241;-72
2023/07/25 05:29:43;;;;;;;10.37;9.57;;;16.10;99.90;;;;;;5032646;28;20661;-73
2023/07/25 05:32:10;;;;;;;10.23;9.43;;;16.10;99.90;;;;;;5032893;28;20218;-73
2023/07/25 05:34:37;;;;;;;10.63;9.73;;;16.10;99.90;;;;;;5038455;28;20704;-72
2023/07/25 05:37:04;;;;;;;10.40;9.70;;;16.10;99.90;;;;;;5044778;28;20219;-73
2023/07/25 05:39:31;;;;;;;10.77;9.93;;;16.00;99.90;;;;;;5038281;28;20693;-73
2023/07/25 05:41:59;;;;;;;10.70;10.00;;;16.10;99.90;;;;;;5034121;28;20662;-73
2023/07/25 05:44:25;;;;;;;10.37;9.67;;;16.10;99.90;;;;;;5035257;28;20633;-73
2023/07/25 05:46:52;;;;;;;10.97;10.17;;;16.10;99.90;;;;;;5039769;28;20675;-73
2023/07/25 05:49:19;;;;;;;5.57;5.03;;;16.20;99.90;;;;;;5032114;28;20199;-73
2023/07/25 05:51:46;;;;;;;10.67;9.97;;;16.30;99.90;;;;;;5032336;28;20234;-75
2023/07/25 05:54:14;;;;;;;5.23;4.83;;;16.40;99.90;;;;;;5032350;28;20219;-75
2023/07/25 05:56:41;;;;;;;8.43;7.73;;;16.50;99.90;;;;;;5031753;28;20210;-75
2023/07/25 05:59:10;;;;;;;8.03;7.43;;;16.70;99.90;;;;;;5033866;28;20231;-74
2023/07/25 06:01:38;;;;;;;10.17;9.47;;;16.80;99.90;;;;;;5044535;28;20295;-75
2023/07/25 06:04:05;;;;;;;8.53;7.87;;;16.90;99.90;;;;;;5033421;28;20551;-74
2023/07/25 06:06:32;;;;;;;7.73;7.13;;;17.00;99.90;;;;;;5045663;28;20277;-74
2023/07/25 06:09:00;;;;;;;11.50;10.70;;;17.10;99.90;;;;;;5037971;28;20214;-74
2023/07/25 06:11:28;;;;;;;5.90;5.30;;;17.20;99.90;;;;;;5031753;28;20636;-75
2023/07/25 06:13:55;;;;;;;5.13;4.63;;;17.30;99.90;;;;;;5031018;28;20315;-74
2023/07/25 06:16:23;;;;;;;10.20;9.50;;;17.30;99.90;;;;;;5043455;28;20585;-76
2023/07/25 06:18:50;;;;;;;5.10;4.60;;;17.30;99.90;;;;;;5030720;28;20251;-73
2023/07/25 06:21:17;;;;;;;8.70;8.00;;;17.30;99.90;;;;;;5032046;28;20282;-74
2023/07/25 06:23:44;;;;;;;7.13;5.03;;;17.30;99.90;;;;;;5031823;28;20212;-74
2023/07/25 06:26:10;;;;;;;6.17;5.67;;;17.30;99.90;;;;;;5030613;28;20215;-74
2023/07/25 06:28:38;;;;;;;7.50;6.90;;;17.20;99.90;;;;;;5031109;28;20658;-73
2023/07/25 06:31:05;;;;;;;6.20;5.60;;;17.20;99.90;;;;;;5031948;28;20662;-73
2023/07/25 06:33:33;;;;;;;5.10;4.60;;;17.20;99.90;;;;;;5038670;28;20228;-73
2023/07/25 06:36:00;;;;;;;6.00;5.20;;;17.10;99.90;;;;;;5030379;28;20204;-77
2023/07/25 06:38:27;;;;;;;6.33;4.67;;;17.10;99.90;;;;;;5031333;28;20253;-75
2023/07/25 06:40:54;;;;;;;5.30;4.70;;;17.20;99.90;;;;;;5030901;28;20265;-76
2023/07/25 06:43:20;;;;;;;11.80;10.90;;;17.30;99.90;;;;;;5043323;28;20709;-76
2023/07/25 06:45:50;;;;;;;10.33;9.53;;;17.30;99.90;;;;;;5039288;28;20196;-77
2023/07/25 06:48:16;;;;;;;10.87;10.07;;;17.40;99.90;;;;;;5030691;28;20685;-77
2023/07/25 06:50:45;;;;;;;8.10;7.50;;;17.50;99.90;;;;;;5031310;28;20285;-76
2023/07/25 06:53:12;;;;;;;5.57;5.07;;;17.60;99.90;;;;;;5031827;28;20212;-79
2023/07/25 06:55:39;;;;;;;9.90;9.20;;;17.70;99.90;;;;;;5036871;28;20189;-77
2023/07/25 06:58:05;;;;;;;9.93;9.23;;;17.80;99.90;;;;;;5036398;28;20199;-77
2023/07/25 07:00:37;;;;;;;5.87;5.10;;;17.90;99.90;;;;;;5036929;28;20263;-76
2023/07/25 07:03:04;;;;;;;8.63;8.03;;;18.00;99.90;;;;;;5043170;28;20215;-77
2023/07/25 07:05:31;;;;;;;6.27;5.70;;;18.30;99.90;;;;;;5037933;28;20213;-77
2023/07/25 07:07:59;;;;;;;6.23;5.63;;;18.70;99.90;;;;;;5040528;28;20201;-77
2023/07/25 07:10:27;;;;;;;8.77;8.07;;;19.00;99.90;;;;;;5032081;28;20231;-77
2023/07/25 07:12:53;;;;;;;5.07;4.53;;;19.20;99.90;;;;;;5032222;28;20218;-77
2023/07/25 07:15:23;;;;;;;4.40;4.00;;;19.10;99.90;;;;;;5033930;28;20281;-77
2023/07/25 07:17:51;;;;;;;9.47;8.67;;;18.90;99.90;;;;;;5048690;28;20213;-77
2023/07/25 07:20:18;;;;;;;8.40;7.70;;;18.70;99.90;;;;;;5036557;28;20202;-77
2023/07/25 07:22:45;;;;;;;5.50;5.00;;;18.70;99.90;;;;;;5041278;28;20218;-77
2023/07/25 07:25:13;;;;;;;5.37;4.57;;;18.70;99.90;;;;;;5048730;28;20703;-78
2023/07/25 07:27:40;;;;;;;5.00;4.50;;;18.80;99.90;;;;;;5038183;28;20202;-77
2023/07/25 07:30:08;;;;;;;5.53;4.60;;;18.90;99.90;;;;;;5049515;28;20197;-77
2023/07/25 07:32:35;;;;;;;4.80;4.30;;;19.10;99.90;;;;;;5046997;28;20225;-78
2023/07/25 07:35:02;;;;;;;9.53;8.83;;;19.30;99.90;;;;;;5053312;28;20236;-81
2023/07/25 07:37:28;;;;;;;7.07;6.40;;;19.30;99.90;;;;;;5044188;28;20195;-78
2023/07/25 07:39:55;;;;;;;7.17;6.47;;;19.50;99.90;;;;;;5044269;28;20673;-77
2023/07/25 07:42:23;;;;;;;4.27;3.87;;;19.80;99.90;;;;;;5045024;28;20282;-74
2023/07/25 07:44:50;;;;;;;4.23;3.83;;;19.90;99.90;;;;;;5047593;28;20228;-74
2023/07/25 07:47:17;;;;;;;5.77;5.17;;;20.10;99.90;;;;;;5042556;28;20251;-75
2023/07/25 07:49:44;;;;;;;4.53;4.13;;;20.30;99.90;;;;;;5053831;28;20658;-75
2023/07/25 07:52:10;;;;;;;5.90;4.13;;;20.70;99.90;;;;;;5048485;28;20196;-75
2023/07/25 07:54:37;;;;;;;11.10;10.23;;;21.10;99.90;;;;;;5050432;28;20230;-75
2023/07/25 07:57:04;;;;;;;9.10;8.30;;;21.00;99.90;;;;;;5047219;28;20849;-75
2023/07/25 07:59:32;;;;;;;5.77;4.30;;;20.80;99.90;;;;;;5035146;28;20192;-75
2023/07/25 08:01:59;;;;;;;5.07;4.20;;;20.50;99.90;;;;;;5037166;28;20195;-75
2023/07/25 08:04:26;;;;;;;5.37;3.90;;;20.40;99.90;;;;;;5042513;28;20215;-75
2023/07/25 08:06:53;;;;;;;3.87;3.53;;;20.30;99.90;;;;;;5049263;28;20227;-75
2023/07/25 08:09:19;;;;;;;4.83;3.90;;;20.20;99.90;;;;;;5036638;28;20253;-75
2023/07/25 08:11:47;;;;;;;4.23;3.80;;;20.30;99.90;;;;;;5044273;28;20207;-75
2023/07/25 08:14:14;;;;;;;5.40;4.90;;;20.50;99.90;;;;;;5048968;28;20285;-75
2023/07/25 08:16:42;;;;;;;8.27;7.63;;;20.60;99.90;;;;;;5042651;28;20195;-76
2023/07/25 08:19:09;;;;;;;6.73;6.13;;;20.70;99.90;;;;;;5034508;28;20223;-80
2023/07/25 08:21:36;;;;;;;7.70;7.10;;;21.00;99.90;;;;;;5044350;28;20670;-78
2023/07/25 08:24:02;;;;;;;9.60;8.90;;;21.60;99.90;;;;;;5045642;28;20208;-79
2023/07/25 08:26:29;;;;;;;7.63;7.07;;;22.30;99.90;;;;;;5049837;28;20684;-78
2023/07/25 08:28:56;;;;;;;3.83;3.43;;;23.10;99.90;;;;;;5051778;28;20228;-79
2023/07/25 08:31:23;;;;;;;3.90;3.50;;;23.60;99.90;;;;;;5046096;28;20204;-78
2023/07/25 08:33:51;;;;;;;6.23;5.63;;;23.80;99.90;;;;;;5037957;28;20234;-79
2023/07/25 08:36:18;;;;;;;3.70;3.40;;;23.70;99.90;;;;;;5043570;28;20251;-78
2023/07/25 08:38:45;;;;;;;3.63;3.33;;;23.50;99.90;;;;;;5047374;28;20229;-81
2023/07/25 08:41:16;;;;;;;3.90;3.10;;;23.50;99.90;;;;;;5053912;28;20218;-80
2023/07/25 08:43:44;;;;;;;4.13;3.40;;;23.40;99.90;;;;;;5050106;28;20647;-80
2023/07/25 08:46:13;;;;;;;5.27;3.80;;;23.50;99.90;;;;;;5054227;28;20246;-81
2023/07/25 08:48:42;;;;;;;7.13;6.63;;;23.40;99.90;;;;;;5054217;28;20199;-81
2023/07/25 08:51:17;;;;;;;4.87;4.47;;;23.40;99.90;;;;;;5051225;28;20215;-79
2023/07/25 08:53:53;;;;;;;5.60;3.50;;;23.10;99.90;;;;;;5052415;28;20285;-81
2023/07/25 08:56:21;;;;;;;4.00;3.60;;;22.60;99.90;;;;;;5053558;28;20202;-80
2023/07/25 08:58:49;;;;;;;4.03;3.03;;;22.30;99.90;;;;;;5056777;28;20200;-79
2023/07/25 09:01:16;;;;;;;3.60;2.73;;;22.20;99.90;;;;;;5047884;28;20206;-79
2023/07/25 09:03:44;;;;;;;3.80;3.40;;;22.10;99.90;;;;;;5044647;28;20212;-82
2023/07/25 09:06:13;;;;;;;2.70;2.47;;;22.20;99.90;;;;;;5048831;28;20649;-80
2023/07/25 09:08:40;;;;;;;3.30;2.60;;;22.40;99.90;;;;;;5049945;28;20215;-79
2023/07/25 09:11:09;;;;;;;3.23;2.63;;;22.80;99.90;;;;;;5059670;28;20221;-79
2023/07/25 09:13:36;;;;;;;2.00;1.90;;;23.00;99.90;;;;;;5053403;28;20813;-79
2023/07/25 09:16:03;;;;;;;4.13;3.67;;;23.00;99.90;;;;;;5035341;28;20648;-77
2023/07/25 09:18:30;;;;;;;2.93;2.73;;;23.50;99.90;;;;;;5046903;28;20199;-80
2023/07/25 09:20:58;;;;;;;4.43;4.10;;;23.70;99.90;;;;;;5051690;28;20233;-79
2023/07/25 09:23:26;;;;;;;3.90;3.60;;;24.00;99.90;;;;;;5051545;28;20667;-80
2023/07/25 09:26:05;;;;;;;2.70;2.50;;;24.50;99.90;;;;;;5048528;28;20278;-80
2023/07/25 09:28:32;;;;;;;2.70;2.50;;;25.10;99.90;;;;;;5055385;28;20273;-80
2023/07/25 09:31:01;;;;;;;2.80;2.60;;;25.30;99.90;;;;;;5056987;28;20202;-80
2023/07/25 09:33:29;;;;;;;3.63;3.13;;;25.40;99.90;;;;;;5047081;28;20284;-80
2023/07/25 09:35:56;;;;;;;2.30;2.10;;;25.80;99.90;;;;;;5051030;28;20294;-82
2023/07/25 09:38:23;;;;;;;7.13;6.73;;;26.40;99.90;;;;;;5055011;28;20223;-77
2023/07/25 09:40:51;;;;;;;5.00;4.70;;;26.60;99.90;;;;;;5053615;28;20199;-80
2023/07/25 09:43:25;;;;;;;5.30;5.00;;;26.80;99.90;;;;;;5042383;28;20200;-78
2023/07/25 09:45:53;;;;;;;5.77;5.27;;;27.00;99.90;;;;;;5032431;28;20200;-76
2023/07/25 09:48:20;;;;;;;5.13;4.83;;;27.00;99.90;;;;;;5046048;28;20222;-77
2023/07/25 09:50:47;;;;;;;5.50;5.10;;;27.10;99.90;;;;;;5037245;28;20207;-77
2023/07/25 09:53:15;;;;;;;7.40;6.70;;;27.00;99.90;;;;;;5036835;28;20198;-78
2023/07/25 09:55:43;;;;;;;5.87;5.47;;;27.00;99.90;;;;;;5031828;28;20204;-77
2023/07/25 09:58:12;;;;;;;5.40;5.00;;;27.30;99.90;;;;;;5046106;28;20203;-78
2023/07/25 10:00:39;;;;;;;6.30;5.90;;;27.40;99.90;;;;;;5049720;28;20226;-77
2023/07/25 10:03:08;;;;;;;6.30;5.80;;;27.30;99.90;;;;;;5061992;28;20195;-79
2023/07/25 10:05:36;;;;;;;6.10;5.20;;;27.30;99.90;;;;;;5059834;28;20248;-78
2023/07/25 10:08:03;;;;;;;5.80;5.40;;;27.20;99.90;;;;;;5043230;28;20208;-77
2023/07/25 10:10:30;;;;;;;6.27;5.80;;;26.80;99.90;;;;;;5042029;28;20238;-79
2023/07/25 10:12:57;;;;;;;4.77;2.83;;;26.60;99.90;;;;;;5049609;28;20195;-78
2023/07/25 10:15:26;;;;;;;6.37;5.87;;;26.50;99.90;;;;;;5056368;28;20241;-78
2023/07/25 10:18:02;;;;;;;3.47;2.40;;;26.30;99.90;;;;;;5055294;28;20199;-81
2023/07/25 10:20:29;;;;;;;3.33;3.03;;;26.20;99.90;;;;;;5050946;28;20218;-78
2023/07/25 10:23:07;;;;;;;3.00;2.70;;;26.20;99.90;;;;;;5048132;28;20246;-78
2023/07/25 10:25:34;;;;;;;3.50;2.50;;;26.50;99.90;;;;;;5061154;28;20222;-79
2023/07/25 10:28:02;;;;;;;2.93;2.60;;;26.90;99.90;;;;;;5051968;28;20262;-77
2023/07/25 10:30:33;;;;;;;5.07;4.73;;;27.10;99.90;;;;;;5057668;28;20187;-78
2023/07/25 10:33:01;;;;;;;6.07;5.67;;;26.90;99.90;;;;;;5050652;28;20199;-80
2023/07/25 10:35:49;;;;;;;7.10;6.50;;;26.60;99.90;;;;;;5048876;28;20223;-80
2023/07/25 10:38:22;;;;;;;2.60;2.30;;;26.50;99.90;;;;;;5051028;28;20300;-79
2023/07/25 10:40:54;;;;;;;3.47;3.17;;;26.70;99.90;;;;;;5056651;28;20198;-80
2023/07/25 10:43:21;;;;;;;4.43;2.53;;;26.70;99.90;;;;;;5054330;28;20203;-80
2023/07/25 10:45:51;;;;;;;3.43;2.63;;;26.40;99.90;;;;;;5049425;28;20199;-79
2023/07/25 10:48:34;;;;;;;3.27;2.37;;;26.10;99.90;;;;;;5046299;28;20219;-79
2023/07/25 10:51:04;;;;;;;3.60;3.30;;;25.90;99.90;;;;;;5050760;28;20208;-78
2023/07/25 10:53:31;;;;;;;3.10;2.53;;;25.90;99.90;;;;;;5060776;28;20617;-79
2023/07/25 10:56:12;;;;;;;3.03;2.60;;;25.80;99.90;;;;;;5043593;28;20252;-79
2023/07/25 10:58:59;;;;;;;3.07;2.27;;;25.70;99.90;;;;;;5051957;28;20195;-78
2023/07/25 11:01:37;;;;;;;3.20;3.00;;;25.90;99.90;;;;;;5066109;28;20200;-78
2023/07/25 11:04:27;;;;;;;12.90;11.87;;;26.30;99.90;;;;;;5053125;28;20215;-78
2023/07/25 11:06:55;;;;;;;2.83;2.63;;;26.50;99.90;;;;;;5049467;28;20234;-79
2023/07/25 11:09:22;;;;;;;4.30;2.20;;;26.60;99.90;;;;;;5056793;28;20195;-79
2023/07/25 11:11:51;;;;;;;3.57;3.07;;;26.50;99.90;;;;;;5055919;28;20199;-79
2023/07/25 11:14:19;;;;;;;2.80;2.60;;;26.30;99.90;;;;;;5047112;28;20231;-79
2023/07/25 11:16:50;;;;;;;4.97;4.57;;;26.20;99.90;;;;;;5045970;28;20256;-78
2023/07/25 11:19:17;;;;;;;3.17;2.63;;;26.10;99.90;;;;;;5042109;28;20667;-79
2023/07/25 11:21:45;;;;;;;4.20;2.30;;;25.90;99.90;;;;;;5052076;28;20196;-80
2023/07/25 11:24:12;;;;;;;3.33;2.97;;;26.00;99.90;;;;;;5048017;28;20230;-78
2023/07/25 11:26:42;;;;;;;6.03;4.30;;;25.70;99.90;;;;;;5039847;28;20188;-80
2023/07/25 11:29:11;;;;;;;2.97;2.77;;;25.40;99.90;;;;;;5043693;28;20195;-80
2023/07/25 11:31:44;;;;;;;5.53;5.13;;;24.90;99.90;;;;;;5040200;28;20200;-79
2023/07/25 11:34:14;;;;;;;5.83;5.43;;;24.70;99.90;;;;;;5054651;28;20223;-78
2023/07/25 11:36:42;;;;;;;4.83;4.43;;;24.40;99.90;;;;;;5050111;28;20203;-79
2023/07/25 11:39:10;;;;;;;2.77;2.57;;;24.70;99.90;;;;;;5040387;28;20628;-79
2023/07/25 11:41:37;;;;;;;4.50;4.10;;;24.90;99.90;;;;;;5038890;28;20206;-80
2023/07/25 11:44:06;;;;;;;3.27;2.87;;;24.80;99.90;;;;;;5041603;28;20223;-79
2023/07/25 11:46:33;;;;;;;6.00;5.60;;;24.60;99.90;;;;;;5047745;28;20224;-78
2023/07/25 11:49:01;;;;;;;3.53;2.90;;;24.50;99.90;;;;;;5049810;28;20239;-79
2023/07/25 11:51:30;;;;;;;2.40;2.20;;;24.60;99.90;;;;;;5045362;28;20200;-79
2023/07/25 11:53:57;;;;;;;2.40;2.20;;;24.70;99.90;;;;;;5040290;28;20227;-79
2023/07/25 11:56:24;;;;;;;4.10;2.83;;;24.90;99.90;;;;;;5046818;28;20246;-79
2023/07/25 11:58:51;;;;;;;5.90;5.30;;;25.10;99.90;;;;;;5047486;28;20199;-77
2023/07/25 12:01:19;;;;;;;3.80;3.00;;;25.30;99.90;;;;;;5040352;28;20195;-79
2023/07/25 12:03:47;;;;;;;3.20;2.90;;;25.20;99.90;;;;;;5051939;28;20448;-79
2023/07/25 12:06:14;;;;;;;3.30;3.10;;;25.30;99.90;;;;;;5047344;28;20560;-78
2023/07/25 12:08:44;;;;;;;6.30;5.80;;;25.40;99.90;;;;;;5039295;28;20650;-78
2023/07/25 12:11:12;;;;;;;5.40;5.00;;;25.40;99.90;;;;;;5047060;28;20572;-80
2023/07/25 12:13:48;;;;;;;4.13;3.80;;;25.30;99.90;;;;;;5052334;28;20228;-80
2023/07/25 12:16:29;;;;;;;5.77;5.30;;;25.00;99.90;;;;;;5045902;28;20196;-80
2023/07/25 12:18:57;;;;;;;4.00;3.53;;;24.60;99.90;;;;;;5043095;28;20207;-80
2023/07/25 12:21:26;;;;;;;4.30;4.00;;;24.30;99.90;;;;;;5042995;28;20219;-82
2023/07/25 12:23:57;;;;;;;2.33;2.00;;;24.10;99.90;;;;;;5041282;28;20219;-80
2023/07/25 12:26:23;;;;;;;3.93;3.63;;;24.10;99.90;;;;;;5044189;28;20192;-80
2023/07/25 12:28:51;;;;;;;5.40;4.90;;;24.10;99.90;;;;;;5042065;28;20737;-80
2023/07/25 12:31:19;;;;;;;6.80;6.40;;;24.10;99.90;;;;;;5040891;28;20196;-77
2023/07/25 12:33:47;;;;;;;3.13;2.27;;;24.00;99.90;;;;;;5051701;28;20246;-78
2023/07/25 12:36:15;;;;;;;5.53;5.23;;;24.00;99.90;;;;;;5059003;28;20233;-78
2023/07/25 12:38:43;;;;;;;6.00;5.60;;;24.10;99.90;;;;;;5042450;28;20196;-79
2023/07/25 12:41:11;;;;;;;5.93;5.53;;;24.20;99.90;;;;;;5038919;28;20302;-78
2023/07/25 12:43:38;;;;;;;5.97;5.60;;;24.40;99.90;;;;;;5038729;28;20592;-79
2023/07/25 12:46:05;;;;;;;4.90;4.60;;;24.50;99.90;;;;;;5034949;28;20202;-77
2023/07/25 12:48:32;;;;;;;5.07;4.77;;;24.60;99.90;;;;;;5039426;28;20246;-78